createdAt,value
2018-11-05T00:01:57.455Z,10.46
2018-11-05T00:07:00.768Z,10.43
2018-11-05T00:12:04.562Z,10.42
2018-11-05T00:17:07.789Z,10.34
2018-11-05T00:22:11.061Z,10.27
2018-11-05T00:27:14.305Z,10.29
2018-11-05T00:32:17.547Z,10.17
2018-11-05T00:37:20.714Z,10.10
2018-11-05T00:42:23.946Z,10.02
2018-11-05T00:47:27.178Z,9.90
2018-11-05T00:52:30.434Z,9.76
2018-11-05T00:57:33.654Z,9.76
2018-11-05T01:02:37.146Z,9.68
2018-11-05T01:07:41.338Z,9.63
2018-11-05T01:12:44.616Z,9.50
2018-11-05T01:17:47.847Z,9.52
2018-11-05T01:22:51.079Z,9.47
2018-11-05T01:27:54.283Z,9.44
2018-11-05T01:32:57.443Z,9.38
2018-11-05T01:38:00.774Z,9.16
2018-11-05T01:43:04.120Z,9.06
2018-11-05T01:48:07.630Z,8.99
2018-11-05T01:53:10.971Z,9.01
2018-11-05T01:58:14.202Z,9.00
2018-11-05T02:03:17.386Z,8.98
2018-11-05T02:08:20.650Z,8.92
2018-11-05T02:13:23.873Z,8.82
2018-11-05T02:18:27.014Z,8.88
2018-11-05T02:23:30.262Z,8.87
2018-11-05T02:28:33.482Z,8.83
2018-11-05T02:33:36.706Z,8.85
2018-11-05T02:38:39.909Z,8.91
2018-11-05T02:43:43.084Z,8.77
2018-11-05T02:48:46.336Z,8.60
2018-11-05T02:53:49.545Z,8.37
2018-11-05T02:58:52.838Z,8.47
2018-11-05T03:03:56.106Z,8.57
2018-11-05T03:08:59.330Z,8.59
2018-11-05T03:14:02.550Z,8.45
2018-11-05T03:19:06.265Z,8.43
2018-11-05T03:24:09.455Z,8.44
2018-11-05T03:29:12.643Z,8.47
2018-11-05T03:34:15.842Z,8.41
2018-11-05T03:39:19.046Z,8.31
2018-11-05T03:44:22.252Z,8.50
2018-11-05T03:49:25.435Z,8.17
2018-11-05T03:54:28.695Z,7.99
2018-11-05T03:59:32.574Z,7.92
2018-11-05T04:04:35.791Z,8.00
2018-11-05T04:09:38.981Z,8.03
2018-11-05T04:14:42.297Z,8.03
2018-11-05T04:19:45.486Z,8.09
2018-11-05T04:24:48.743Z,7.90
2018-11-05T04:29:51.914Z,7.78
2018-11-05T04:34:55.122Z,7.81
2018-11-05T04:39:58.322Z,8.02
2018-11-05T04:45:01.548Z,7.77
2018-11-05T04:50:07.503Z,7.67
2018-11-05T04:55:10.935Z,7.66
2018-11-05T05:00:16.391Z,7.65
2018-11-05T05:05:19.594Z,7.67
2018-11-05T05:10:22.829Z,7.59
2018-11-05T05:15:26.136Z,7.59
2018-11-05T05:20:29.399Z,7.48
2018-11-05T05:25:32.601Z,7.45
2018-11-05T05:30:35.771Z,7.40
2018-11-05T05:35:38.983Z,7.39
2018-11-05T05:40:42.270Z,7.33
2018-11-05T05:45:45.438Z,7.41
2018-11-05T05:50:48.683Z,7.36
2018-11-05T05:55:51.935Z,7.36
2018-11-05T06:00:55.330Z,7.44
2018-11-05T06:05:58.692Z,7.33
2018-11-05T06:11:01.891Z,7.38
2018-11-05T06:16:05.295Z,7.35
2018-11-05T06:21:08.455Z,7.41
2018-11-05T06:26:11.774Z,7.33
2018-11-05T06:31:14.995Z,7.25
2018-11-05T06:36:30.092Z,7.22
2018-11-05T06:41:33.534Z,7.17
2018-11-05T06:46:36.687Z,7.29
2018-11-05T06:51:40.071Z,7.48
2018-11-05T06:56:43.502Z,7.68
2018-11-05T07:01:46.718Z,7.55
2018-11-05T07:06:49.946Z,7.72
2018-11-05T07:11:53.189Z,8.10
2018-11-05T07:16:56.523Z,8.59
2018-11-05T07:22:00.074Z,9.01
2018-11-05T07:27:03.323Z,8.91
2018-11-05T07:32:06.642Z,9.19
2018-11-05T07:37:09.898Z,9.52
2018-11-05T07:42:13.123Z,9.70
2018-11-05T07:47:16.341Z,9.92
2018-11-05T07:52:19.587Z,10.31
2018-11-05T07:57:22.833Z,10.33
2018-11-05T08:02:26.111Z,10.43
2018-11-05T08:07:29.355Z,10.86
2018-11-05T08:12:32.632Z,10.94
2018-11-05T08:17:36.043Z,11.08
2018-11-05T08:22:39.308Z,11.41
2018-11-05T08:27:42.548Z,11.66
2018-11-05T08:32:46.364Z,11.39
2018-11-05T08:37:50.174Z,11.43
2018-11-05T08:42:54.198Z,11.58
2018-11-05T08:47:57.425Z,12.20
2018-11-05T08:53:00.655Z,12.34
2018-11-05T08:58:03.934Z,12.46
2018-11-05T09:03:08.189Z,12.69
2018-11-05T09:08:11.458Z,12.61
2018-11-05T09:13:14.695Z,12.41
2018-11-05T09:18:17.936Z,12.62
2018-11-05T09:23:21.212Z,12.72
2018-11-05T09:28:24.491Z,12.90
2018-11-05T09:33:27.749Z,12.76
2018-11-05T09:38:30.982Z,12.90
2018-11-05T09:43:34.191Z,13.07
2018-11-05T09:48:37.421Z,13.20
2018-11-05T09:53:40.939Z,13.33
2018-11-05T09:58:44.362Z,13.46
2018-11-05T10:03:53.987Z,13.33
2018-11-05T10:08:57.220Z,13.35
2018-11-05T10:14:00.421Z,13.47
2018-11-05T10:19:03.863Z,13.39
2018-11-05T10:24:07.148Z,13.35
2018-11-05T10:29:10.378Z,13.44
2018-11-05T10:34:13.663Z,13.82
2018-11-05T10:39:16.921Z,13.75
2018-11-05T10:44:20.106Z,14.16
2018-11-05T10:49:23.358Z,14.32
2018-11-05T10:54:26.641Z,14.75
2018-11-05T10:59:29.894Z,14.61
2018-11-05T11:04:33.996Z,15.06
2018-11-05T11:09:37.249Z,15.05
2018-11-05T11:14:40.429Z,15.20
2018-11-05T11:19:43.676Z,15.06
2018-11-05T11:24:46.898Z,15.55
2018-11-05T11:29:50.156Z,15.31
2018-11-05T11:34:53.426Z,15.63
2018-11-05T11:39:56.695Z,15.72
2018-11-05T11:45:00.110Z,15.83
2018-11-05T11:50:03.803Z,15.63
2018-11-05T11:55:09.802Z,15.45
2018-11-05T12:00:16.029Z,15.50
2018-11-05T12:05:19.509Z,15.47
2018-11-05T12:10:23.722Z,15.47
2018-11-05T12:15:27.012Z,15.39
2018-11-05T12:20:30.358Z,15.61
2018-11-05T12:25:33.493Z,15.90
2018-11-05T12:30:36.715Z,15.83
2018-11-05T12:35:39.947Z,15.85
2018-11-05T12:40:43.187Z,15.72
2018-11-05T12:45:46.430Z,15.63
2018-11-05T12:50:49.870Z,15.43
2018-11-05T12:55:53.064Z,15.32
2018-11-05T13:00:56.332Z,15.53
2018-11-05T13:05:59.662Z,15.95
2018-11-05T13:11:02.907Z,15.90
2018-11-05T13:16:06.161Z,16.11
2018-11-05T13:21:09.406Z,16.28
2018-11-05T13:26:13.301Z,16.00
2018-11-05T13:31:16.531Z,16.07
2018-11-05T13:36:19.772Z,16.13
2018-11-05T13:41:23.075Z,16.11
2018-11-05T13:46:26.567Z,16.19
2018-11-05T13:51:29.771Z,16.18
2018-11-05T13:56:33.052Z,16.41
2018-11-05T14:01:36.254Z,16.40
2018-11-05T14:06:39.454Z,16.42
2018-11-05T14:11:42.699Z,16.48
2018-11-05T14:16:45.938Z,16.58
2018-11-05T14:21:49.173Z,16.52
2018-11-05T14:26:52.454Z,16.75
2018-11-05T14:31:55.661Z,16.65
2018-11-05T14:36:59.115Z,16.56
2018-11-05T14:42:02.129Z,16.56
2018-11-05T14:47:05.360Z,16.44
2018-11-05T14:52:08.596Z,16.16
2018-11-05T14:57:12.135Z,16.14
2018-11-05T15:02:21.058Z,15.97
2018-11-05T15:07:24.275Z,15.75
2018-11-05T15:12:27.518Z,15.54
2018-11-05T15:17:30.767Z,15.38
2018-11-05T15:22:34.025Z,15.26
2018-11-05T15:27:38.040Z,15.07
2018-11-05T15:32:41.576Z,14.94
2018-11-05T15:37:44.976Z,14.90
2018-11-05T15:42:48.288Z,14.72
2018-11-05T15:47:51.516Z,14.52
2018-11-05T15:52:55.277Z,14.40
2018-11-05T15:57:58.126Z,14.25
2018-11-05T16:03:01.823Z,14.04
2018-11-05T16:08:05.553Z,13.75
2018-11-05T16:13:08.756Z,13.61
2018-11-05T16:18:12.018Z,13.45
2018-11-05T16:23:15.238Z,13.22
2018-11-05T16:28:18.480Z,13.07
2018-11-05T16:33:21.832Z,12.89
2018-11-05T16:38:25.292Z,12.71
2018-11-05T16:43:28.554Z,12.56
2018-11-05T16:48:31.811Z,12.38
2018-11-05T16:53:41.825Z,12.24
2018-11-05T16:58:45.150Z,12.13
2018-11-05T17:03:48.342Z,12.00
2018-11-05T17:08:51.589Z,11.90
2018-11-05T17:13:54.908Z,11.74
2018-11-05T17:18:58.147Z,11.65
2018-11-05T17:24:08.214Z,11.55
2018-11-05T17:29:11.463Z,11.46
2018-11-05T17:34:14.853Z,11.19
2018-11-05T17:39:18.157Z,11.19
2018-11-05T17:44:21.456Z,11.03
2018-11-05T17:49:24.822Z,10.98
2018-11-05T17:54:28.225Z,10.93
2018-11-05T17:59:31.563Z,10.89
2018-11-05T18:04:35.269Z,10.71
2018-11-05T18:09:38.476Z,10.63
2018-11-05T18:14:42.021Z,10.58
2018-11-05T18:19:45.307Z,10.54
2018-11-05T18:24:48.567Z,10.52
2018-11-05T18:29:51.875Z,10.41
2018-11-05T18:34:55.190Z,10.35
2018-11-05T18:39:58.477Z,10.27
2018-11-05T18:45:01.808Z,10.13
2018-11-05T18:50:08.379Z,10.11
2018-11-05T18:55:13.078Z,10.04
2018-11-05T19:00:22.155Z,9.95
2018-11-05T19:05:26.797Z,9.90
2018-11-05T19:10:30.130Z,9.80
2018-11-05T19:15:33.517Z,9.72
2018-11-05T19:20:36.889Z,9.68
2018-11-05T19:25:40.188Z,9.61
2018-11-05T19:30:43.525Z,9.51
2018-11-05T19:35:46.904Z,9.50
2018-11-05T19:40:50.222Z,9.41
2018-11-05T19:45:53.549Z,9.24
2018-11-05T19:50:56.930Z,9.22
2018-11-05T19:56:00.273Z,9.22
2018-11-05T20:01:03.845Z,9.16
2018-11-05T20:06:07.336Z,9.12
2018-11-05T20:11:10.535Z,9.16
2018-11-05T20:16:14.449Z,9.19
2018-11-05T20:21:19.747Z,9.15
2018-11-05T20:26:23.130Z,9.05
2018-11-05T20:31:30.051Z,8.97
2018-11-05T20:36:33.505Z,8.89
2018-11-05T20:41:37.464Z,8.81
2018-11-05T20:46:41.159Z,8.78
2018-11-05T20:51:45.320Z,8.69
2018-11-05T20:56:49.560Z,8.61
2018-11-05T21:01:52.886Z,8.60
2018-11-05T21:06:56.288Z,8.56
2018-11-05T21:11:59.613Z,8.52
2018-11-05T21:17:03.084Z,8.35
2018-11-05T21:22:12.598Z,8.40
2018-11-05T21:27:17.207Z,8.34
2018-11-05T21:32:21.911Z,8.43
2018-11-05T21:37:25.382Z,8.10
2018-11-05T21:42:29.875Z,8.02
2018-11-05T21:47:33.251Z,8.08
2018-11-05T21:52:42.184Z,8.07
2018-11-05T21:57:47.464Z,8.02
2018-11-05T22:02:56.729Z,8.07
2018-11-05T22:08:00.168Z,7.96
2018-11-05T22:13:06.499Z,7.93
2018-11-05T22:18:14.236Z,7.79
2018-11-05T22:23:19.192Z,7.82
2018-11-05T22:28:23.066Z,7.83
2018-11-05T22:33:26.324Z,7.73
2018-11-05T22:38:29.659Z,7.73
2018-11-05T22:43:33.568Z,7.66
2018-11-05T22:48:47.369Z,7.73
2018-11-05T22:53:51.148Z,7.73
2018-11-05T22:58:54.413Z,7.63
2018-11-05T23:04:00.232Z,7.56
2018-11-05T23:09:05.130Z,7.48
2018-11-05T23:14:10.755Z,7.38
2018-11-05T23:19:19.691Z,7.34
2018-11-05T23:24:23.463Z,7.34
2018-11-05T23:29:26.852Z,7.22
2018-11-05T23:34:30.335Z,7.21
2018-11-05T23:39:34.643Z,7.22
2018-11-05T23:44:40.989Z,7.32
2018-11-05T23:49:46.045Z,7.25
2018-11-05T23:54:51.187Z,7.16
2018-11-05T23:59:54.402Z,7.07
